Time;durP1;ratioP1;P1;durP2;ratioP2;P2;SDS_P1;SDS_P2;PMS_P1;PMS_P2;Temp;Humidity;BMP_temperature;BMP_pressure;BME280_temperature;BME280_humidity;BME280_pressure;Samples;Min_cycle;Max_cycle;Signal;HPM_P1;HPM_P2
2022/10/12 00:01:11;;;;;;;0.10;0.10;;;6.70;99.90;;;;;;6247967;22;20023;-85
2022/10/12 00:03:38;;;;;;;0.17;0.17;;;6.80;99.90;;;;;;6247176;22;20020;-87
2022/10/12 00:06:10;;;;;;;0.05;0.05;;;6.80;99.90;;;;;;6248125;22;20016;-85
2022/10/12 00:08:37;;;;;;;0.10;0.10;;;6.90;99.90;;;;;;6248289;22;20020;-85
2022/10/12 00:11:04;;;;;;;0.75;0.35;;;6.80;99.90;;;;;;6223098;22;20019;-85
2022/10/12 00:13:30;;;;;;;0.32;0.28;;;6.90;99.90;;;;;;6248749;22;20018;-85
2022/10/12 00:15:56;;;;;;;0.00;0.00;;;6.90;99.90;;;;;;6247329;22;20015;-85
2022/10/12 00:18:22;;;;;;;0.20;0.20;;;7.60;99.90;;;;;;6275287;22;20043;-85
2022/10/12 00:20:47;;;;;;;0.33;0.33;;;6.90;99.90;;;;;;6247392;22;20047;-86
2022/10/12 00:23:13;;;;;;;0.13;0.10;;;6.90;99.90;;;;;;6235843;22;20011;-85
2022/10/12 00:25:40;;;;;;;0.10;0.10;;;6.90;99.90;;;;;;6241408;22;20019;-87
2022/10/12 00:28:07;;;;;;;0.10;0.10;;;6.90;99.90;;;;;;6247947;22;20023;-85
2022/10/12 00:30:33;;;;;;;0.43;0.13;;;6.90;99.90;;;;;;6247785;22;20471;-85
2022/10/12 00:32:59;;;;;;;0.08;0.08;;;6.90;99.90;;;;;;6245213;22;20012;-85
2022/10/12 00:35:28;;;;;;;0.73;0.20;;;7.70;99.90;;;;;;6237742;22;20045;-86
2022/10/12 00:37:54;;;;;;;0.55;0.10;;;7.50;99.90;;;;;;6222104;22;20031;-86
2022/10/12 00:40:20;;;;;;;0.00;0.00;;;6.90;99.90;;;;;;6248472;22;20353;-87
2022/10/12 00:42:48;;;;;;;0.20;0.10;;;6.80;99.90;;;;;;6246516;22;20440;-87
2022/10/12 00:45:14;;;;;;;0.00;0.00;;;6.80;99.90;;;;;;6247798;22;20019;-86
2022/10/12 00:47:43;;;;;;;;;;;6.80;99.90;;;;;;6223178;22;20077;-85
2022/10/12 00:50:11;;;;;;;0.10;0.10;;;7.70;99.90;;;;;;6222808;22;19914;-86
2022/10/12 00:52:46;;;;;;;0.10;0.10;;;7.10;99.90;;;;;;6248520;22;20099;-86
2022/10/12 00:55:16;;;;;;;0.30;0.30;;;6.90;99.90;;;;;;6248348;22;20336;-86
2022/10/12 00:57:42;;;;;;;0.20;0.20;;;7.90;99.90;;;;;;6223547;22;20452;-86
2022/10/12 01:00:09;;;;;;;0.00;0.00;;;6.70;99.90;;;;;;6216771;23;20472;-86
2022/10/12 01:02:38;;;;;;;0.10;0.10;;;6.70;99.90;;;;;;6239321;22;20039;-86
2022/10/12 01:05:04;;;;;;;0.10;0.10;;;6.70;99.90;;;;;;6246695;22;20019;-85
2022/10/12 01:07:30;;;;;;;0.10;0.10;;;6.60;99.90;;;;;;6222689;22;20090;-85
2022/10/12 01:09:55;;;;;;;0.10;0.10;;;6.70;99.90;;;;;;6247747;22;20364;-85
2022/10/12 01:12:26;;;;;;;0.17;0.17;;;6.70;99.90;;;;;;6261578;22;20091;-85
2022/10/12 01:14:52;;;;;;;0.10;0.10;;;7.20;99.90;;;;;;6274638;22;20050;-86
2022/10/12 01:17:40;;;;;;;0.10;0.10;;;7.40;99.90;;;;;;6235095;22;20016;-86
2022/10/12 01:20:32;;;;;;;0.15;0.15;;;6.60;99.90;;;;;;6222287;22;20019;-86
2022/10/12 01:23:10;;;;;;;0.63;0.52;;;6.50;99.90;;;;;;6247116;22;20018;-86
2022/10/12 01:25:59;;;;;;;0.10;0.10;;;6.50;99.90;;;;;;6222808;22;20059;-86
2022/10/12 01:28:49;;;;;;;0.15;0.00;;;6.50;99.90;;;;;;6248583;22;20027;-86
2022/10/12 01:31:50;;;;;;;0.10;0.10;;;6.50;99.90;;;;;;6222921;22;20459;-86
2022/10/12 01:34:32;;;;;;;0.10;0.10;;;6.40;99.90;;;;;;6211130;22;20026;-86
2022/10/12 01:37:12;;;;;;;0.17;0.15;;;6.40;99.90;;;;;;6248428;22;20015;-86
2022/10/12 01:39:45;;;;;;;0.10;0.10;;;6.40;99.90;;;;;;6250020;22;20011;-86
2022/10/12 01:42:22;;;;;;;0.10;0.10;;;6.50;99.90;;;;;;6275552;22;20181;-86
2022/10/12 01:44:47;;;;;;;0.00;0.00;;;6.40;99.90;;;;;;6249344;22;20023;-86
2022/10/12 01:47:13;;;;;;;0.20;0.20;;;6.40;99.90;;;;;;6223109;22;20019;-86
2022/10/12 01:49:39;;;;;;;0.10;0.10;;;6.40;99.90;;;;;;6242795;22;20073;-86
2022/10/12 01:52:40;;;;;;;0.40;0.30;;;6.50;99.90;;;;;;6223773;22;20375;-86
2022/10/12 01:55:43;;;;;;;0.50;0.17;;;6.50;99.90;;;;;;6207493;22;20023;-86
2022/10/12 01:58:30;;;;;;;0.00;0.00;;;6.50;99.90;;;;;;6229981;22;20026;-85
2022/10/12 02:01:28;;;;;;;0.10;0.10;;;6.50;99.90;;;;;;6248639;22;20020;-86
2022/10/12 02:04:10;;;;;;;0.20;0.20;;;6.40;99.90;;;;;;6249093;22;20475;-87
2022/10/12 02:06:50;;;;;;;0.25;0.25;;;6.50;99.90;;;;;;6248922;22;20455;-85
2022/10/12 02:09:29;;;;;;;0.03;0.03;;;6.40;99.90;;;;;;6249070;22;20015;-86
2022/10/12 02:11:58;;;;;;;0.20;0.20;;;6.40;99.90;;;;;;6223623;22;20022;-89
2022/10/12 02:14:37;;;;;;;0.00;0.00;;;7.10;99.90;;;;;;6249803;22;20086;-86
2022/10/12 02:17:07;;;;;;;0.10;0.10;;;6.40;99.90;;;;;;6248999;22;20065;-86
2022/10/12 02:19:41;;;;;;;0.20;0.20;;;6.90;99.90;;;;;;6249763;22;20015;-85
2022/10/12 02:22:09;;;;;;;0.30;0.17;;;6.40;99.90;;;;;;6248423;22;20087;-85
2022/10/12 02:24:39;;;;;;;0.20;0.20;;;6.40;99.90;;;;;;6224099;22;20066;-85
2022/10/12 02:27:07;;;;;;;0.10;0.10;;;6.40;99.90;;;;;;6248191;22;20012;-85
2022/10/12 02:29:38;;;;;;;0.10;0.10;;;6.40;99.90;;;;;;6249167;22;20020;-85
2022/10/12 02:32:18;;;;;;;0.25;0.25;;;6.40;99.90;;;;;;6275455;22;20016;-86
2022/10/12 02:34:45;;;;;;;0.10;0.10;;;6.40;99.90;;;;;;6249113;22;20023;-86
2022/10/12 02:37:20;;;;;;;0.20;0.20;;;7.40;99.90;;;;;;6247004;22;20027;-86
2022/10/12 02:39:48;;;;;;;0.20;0.00;;;6.50;99.90;;;;;;6249322;22;20020;-86
2022/10/12 02:42:20;;;;;;;0.25;0.25;;;6.50;99.90;;;;;;6248158;22;20508;-85
2022/10/12 02:44:47;;;;;;;0.30;0.13;;;6.50;99.90;;;;;;6224050;22;20045;-85
2022/10/12 02:47:14;;;;;;;0.40;0.20;;;6.50;99.90;;;;;;6210521;22;20098;-86
2022/10/12 02:49:42;;;;;;;0.20;0.20;;;6.50;99.90;;;;;;6223646;22;20038;-86
2022/10/12 02:52:08;;;;;;;0.00;0.00;;;6.50;99.90;;;;;;6248458;22;20432;-85
2022/10/12 02:54:35;;;;;;;0.07;0.07;;;6.50;99.90;;;;;;6266875;22;20098;-85
2022/10/12 02:57:00;;;;;;;0.22;0.15;;;7.20;99.90;;;;;;6221781;22;20022;-87
2022/10/12 02:59:26;;;;;;;0.50;0.20;;;6.50;99.90;;;;;;6238835;22;20020;-85
2022/10/12 03:01:52;;;;;;;0.47;0.40;;;6.60;99.90;;;;;;6248696;22;20059;-86
2022/10/12 03:04:17;;;;;;;0.10;0.10;;;6.50;99.90;;;;;;6247845;22;20078;-86
2022/10/12 03:06:43;;;;;;;0.13;0.13;;;6.50;99.90;;;;;;6242473;22;20011;-86
2022/10/12 03:09:09;;;;;;;0.17;0.17;;;6.50;99.90;;;;;;6247476;22;20061;-85
2022/10/12 03:11:36;;;;;;;0.20;0.20;;;6.50;99.90;;;;;;6259828;22;20020;-85
2022/10/12 03:14:03;;;;;;;0.10;0.10;;;6.50;99.90;;;;;;6246561;22;20017;-87
2022/10/12 03:16:28;;;;;;;0.00;0.00;;;6.40;99.90;;;;;;6237960;22;20019;-85
2022/10/12 03:18:54;;;;;;;0.60;0.20;;;6.90;99.90;;;;;;6222683;22;20019;-86
2022/10/12 03:21:20;;;;;;;0.10;0.00;;;6.40;99.90;;;;;;6222366;22;20012;-85
2022/10/12 03:23:46;;;;;;;0.30;0.30;;;6.40;99.90;;;;;;6248691;22;20099;-85
2022/10/12 03:26:11;;;;;;;0.20;0.20;;;6.40;99.90;;;;;;6218157;23;20098;-85
2022/10/12 03:28:37;;;;;;;0.03;0.03;;;6.30;99.90;;;;;;6222853;22;20017;-86
2022/10/12 03:31:03;;;;;;;0.20;0.10;;;6.30;99.90;;;;;;6248337;22;20022;-86
2022/10/12 03:33:29;;;;;;;0.77;0.20;;;6.30;99.90;;;;;;6247887;22;20123;-86
2022/10/12 03:35:54;;;;;;;0.13;0.13;;;6.20;99.90;;;;;;6244991;22;20011;-86
2022/10/12 03:38:20;;;;;;;0.30;0.30;;;6.50;99.90;;;;;;6235678;22;20503;-85
2022/10/12 03:40:46;;;;;;;0.20;0.20;;;6.20;99.90;;;;;;6248706;22;20046;-84
2022/10/12 03:43:13;;;;;;;0.20;0.10;;;6.90;99.90;;;;;;6247281;22;20047;-86
2022/10/12 03:45:39;;;;;;;0.20;0.15;;;6.20;99.90;;;;;;6248935;22;20269;-85
2022/10/12 03:48:05;;;;;;;0.10;0.10;;;6.20;99.90;;;;;;6247278;22;20020;-87
2022/10/12 03:50:33;;;;;;;;;;;6.20;99.90;;;;;;6222967;22;20020;-85
2022/10/12 03:53:00;;;;;;;0.05;0.00;;;7.00;99.90;;;;;;6275666;22;19976;-85
2022/10/12 03:55:25;;;;;;;0.20;0.10;;;6.10;99.90;;;;;;6247619;22;20015;-86
2022/10/12 03:57:51;;;;;;;0.10;0.10;;;6.10;99.90;;;;;;6248833;22;20042;-84
2022/10/12 04:00:17;;;;;;;0.03;0.03;;;6.10;99.90;;;;;;6247383;22;20023;-86
2022/10/12 04:02:43;;;;;;;1.40;0.40;;;6.20;99.90;;;;;;6242715;22;20018;-85
2022/10/12 04:05:09;;;;;;;0.27;0.27;;;6.10;99.90;;;;;;6222485;22;20102;-87
2022/10/12 04:07:34;;;;;;;0.53;0.27;;;6.20;99.90;;;;;;6239951;22;20066;-86
2022/10/12 04:10:00;;;;;;;0.43;0.20;;;6.20;99.90;;;;;;6222077;22;20016;-86
2022/10/12 04:12:26;;;;;;;0.27;0.20;;;6.10;99.90;;;;;;6221651;22;20325;-86
2022/10/12 04:14:55;;;;;;;0.10;0.10;;;6.10;99.90;;;;;;6222850;22;20038;-86
2022/10/12 04:17:20;;;;;;;0.30;0.10;;;6.10;99.90;;;;;;6247395;22;20012;-86
2022/10/12 04:19:46;;;;;;;1.00;0.20;;;6.10;99.90;;;;;;6248250;22;20077;-86
2022/10/12 04:22:11;;;;;;;0.30;0.30;;;6.30;99.90;;;;;;6247018;22;20020;-87
2022/10/12 04:24:37;;;;;;;0.10;0.10;;;6.30;99.90;;;;;;6241278;22;20091;-86
2022/10/12 04:27:03;;;;;;;0.87;0.33;;;6.10;99.90;;;;;;6247648;22;20459;-85
2022/10/12 04:29:29;;;;;;;2.70;0.10;;;6.00;99.90;;;;;;6247284;22;20020;-86
2022/10/12 04:31:54;;;;;;;0.30;0.30;;;6.40;99.90;;;;;;6248020;22;20073;-85
2022/10/12 04:34:20;;;;;;;0.20;0.20;;;6.00;99.90;;;;;;6222145;22;20138;-85
2022/10/12 04:36:46;;;;;;;0.10;0.10;;;6.10;99.90;;;;;;6242278;22;20508;-85
2022/10/12 04:39:12;;;;;;;0.83;0.40;;;6.20;99.90;;;;;;6247363;22;20504;-87
2022/10/12 04:41:38;;;;;;;1.38;0.40;;;6.90;99.90;;;;;;6247685;22;20012;-86
2022/10/12 04:44:05;;;;;;;0.20;0.20;;;6.10;99.90;;;;;;6247124;22;20046;-86
2022/10/12 04:46:31;;;;;;;0.40;0.40;;;6.10;99.90;;;;;;6213939;22;20348;-85
2022/10/12 04:48:56;;;;;;;0.40;0.40;;;6.80;99.90;;;;;;6244689;22;20016;-85
2022/10/12 04:51:22;;;;;;;0.30;0.20;;;6.10;99.90;;;;;;6247569;22;20024;-86
2022/10/12 04:53:48;;;;;;;0.33;0.30;;;6.10;99.90;;;;;;6243249;22;20102;-85
2022/10/12 04:56:13;;;;;;;0.20;0.20;;;6.00;99.90;;;;;;6222556;22;20111;-86
2022/10/12 04:58:39;;;;;;;0.30;0.30;;;6.00;99.90;;;;;;6239888;22;20016;-85
2022/10/12 05:01:05;;;;;;;0.13;0.13;;;5.90;99.90;;;;;;6247652;22;20016;-85
2022/10/12 05:03:30;;;;;;;1.43;0.40;;;5.90;99.90;;;;;;6238703;22;20042;-86
2022/10/12 05:05:56;;;;;;;0.43;0.20;;;5.90;99.90;;;;;;6276073;22;20038;-85
2022/10/12 05:08:22;;;;;;;0.43;0.43;;;5.90;99.90;;;;;;6249405;22;20099;-86
2022/10/12 05:10:48;;;;;;;1.03;0.37;;;5.90;99.90;;;;;;6224214;22;20385;-86
2022/10/12 05:13:14;;;;;;;0.30;0.30;;;6.20;99.90;;;;;;6210419;22;20018;-86
2022/10/12 05:15:41;;;;;;;0.82;0.63;;;6.00;99.90;;;;;;6249346;22;20016;-86
2022/10/12 05:18:07;;;;;;;0.35;0.35;;;5.90;99.90;;;;;;6224474;22;20344;-85
2022/10/12 05:20:32;;;;;;;0.57;0.37;;;5.90;99.90;;;;;;6223222;22;20019;-85
2022/10/12 05:22:58;;;;;;;0.40;0.40;;;6.00;99.90;;;;;;6247433;22;20019;-85
2022/10/12 05:25:24;;;;;;;0.73;0.43;;;5.90;99.90;;;;;;6222877;22;20024;-86
2022/10/12 05:27:49;;;;;;;1.27;1.13;;;5.90;99.90;;;;;;6246041;22;20051;-85
2022/10/12 05:30:15;;;;;;;0.60;0.40;;;5.90;99.90;;;;;;6278074;22;20027;-87
2022/10/12 05:32:43;;;;;;;2.00;0.70;;;5.90;99.90;;;;;;6223513;22;20020;-85
2022/10/12 05:35:09;;;;;;;0.40;0.40;;;5.90;99.90;;;;;;6249567;22;20023;-85
2022/10/12 05:37:35;;;;;;;0.70;0.70;;;5.90;99.90;;;;;;6244116;23;20020;-85
2022/10/12 05:40:00;;;;;;;0.30;0.30;;;5.80;99.90;;;;;;6244186;22;20146;-85
2022/10/12 05:42:26;;;;;;;0.53;0.40;;;5.80;99.90;;;;;;6249323;22;20019;-86
2022/10/12 05:44:52;;;;;;;0.70;0.47;;;5.80;99.90;;;;;;6249216;22;20027;-86
2022/10/12 05:47:17;;;;;;;0.30;0.30;;;6.70;99.90;;;;;;6263941;22;20019;-85
2022/10/12 05:49:43;;;;;;;0.57;0.33;;;6.40;99.90;;;;;;6244441;23;20471;-86
2022/10/12 05:52:09;;;;;;;0.83;0.53;;;6.50;99.90;;;;;;6236867;22;20341;-85
2022/10/12 05:54:35;;;;;;;0.57;0.53;;;5.90;99.90;;;;;;6249480;22;20384;-86
2022/10/12 05:57:00;;;;;;;0.53;0.40;;;5.70;99.90;;;;;;6250521;22;20498;-86
2022/10/12 05:59:26;;;;;;;0.43;0.43;;;5.70;99.90;;;;;;6248928;22;20435;-83
2022/10/12 06:01:52;;;;;;;1.40;0.40;;;5.70;99.90;;;;;;6250129;22;20015;-86
2022/10/12 06:04:18;;;;;;;0.23;0.23;;;5.70;99.90;;;;;;6275821;22;20042;-86
2022/10/12 06:06:43;;;;;;;0.57;0.30;;;5.70;99.90;;;;;;6248480;22;20015;-86
2022/10/12 06:09:11;;;;;;;0.73;0.20;;;5.90;99.90;;;;;;6274991;22;20022;-84
2022/10/12 06:11:36;;;;;;;1.73;0.40;;;6.60;99.90;;;;;;6240205;22;20012;-85
2022/10/12 06:14:02;;;;;;;0.10;0.10;;;5.90;99.90;;;;;;6276385;22;20371;-84
2022/10/12 06:16:28;;;;;;;0.23;0.23;;;6.50;99.90;;;;;;6247169;22;20023;-83
2022/10/12 06:18:54;;;;;;;0.43;0.43;;;5.70;99.90;;;;;;6275079;22;20030;-85
2022/10/12 06:21:19;;;;;;;0.43;0.40;;;5.60;99.90;;;;;;6223926;22;20019;-84
2022/10/12 06:23:45;;;;;;;0.63;0.60;;;5.70;99.90;;;;;;6247960;22;20020;-83
2022/10/12 06:26:11;;;;;;;0.20;0.20;;;5.80;99.90;;;;;;6247820;22;20019;-87
2022/10/12 06:28:36;;;;;;;1.80;0.40;;;5.60;99.90;;;;;;6223171;22;20487;-84
2022/10/12 06:31:02;;;;;;;0.37;0.30;;;5.70;99.90;;;;;;6250335;22;20098;-83
2022/10/12 06:33:28;;;;;;;0.30;0.30;;;5.70;99.90;;;;;;6249030;22;20111;-85
2022/10/12 06:35:55;;;;;;;0.83;0.50;;;5.70;99.90;;;;;;6240661;23;20278;-83
2022/10/12 06:38:23;;;;;;;0.60;0.60;;;5.70;99.90;;;;;;6169944;23;20024;-83
2022/10/12 06:40:49;;;;;;;0.60;0.35;;;5.70;99.90;;;;;;6218964;23;20051;-83
2022/10/12 06:43:15;;;;;;;1.60;0.77;;;5.80;99.90;;;;;;6145359;23;20043;-84
2022/10/12 06:45:40;;;;;;;0.70;0.67;;;5.90;99.90;;;;;;6193648;23;20023;-83
2022/10/12 06:48:06;;;;;;;0.47;0.37;;;6.10;99.90;;;;;;6245559;23;20522;-83
2022/10/12 06:50:32;;;;;;;0.52;0.40;;;6.40;99.90;;;;;;6218036;23;20031;-84
2022/10/12 06:52:58;;;;;;;0.70;0.60;;;6.60;99.90;;;;;;6194483;23;20337;-83
2022/10/12 06:55:24;;;;;;;0.33;0.33;;;6.70;99.90;;;;;;6194266;23;20055;-84
2022/10/12 06:57:50;;;;;;;0.63;0.37;;;7.10;99.90;;;;;;6193471;23;20020;-84
2022/10/12 07:00:15;;;;;;;0.70;0.53;;;7.60;99.90;;;;;;6219594;23;20058;-84
2022/10/12 07:02:41;;;;;;;1.03;0.80;;;8.00;99.90;;;;;;6218890;23;20012;-85
2022/10/12 07:05:08;;;;;;;1.70;0.60;;;8.20;99.90;;;;;;6219261;23;20095;-85
2022/10/12 07:07:35;;;;;;;1.63;0.77;;;8.30;99.90;;;;;;6193333;23;20012;-86
2022/10/12 07:10:01;;;;;;;2.20;0.80;;;8.30;99.90;;;;;;6194410;23;20143;-85
2022/10/12 07:12:27;;;;;;;0.60;0.60;;;8.50;99.90;;;;;;6193854;23;20310;-85
2022/10/12 07:14:56;;;;;;;0.90;0.90;;;8.60;99.90;;;;;;6192791;23;20324;-84
2022/10/12 07:17:22;;;;;;;0.85;0.30;;;8.80;99.90;;;;;;6218432;23;20020;-85
2022/10/12 07:19:48;;;;;;;0.63;0.53;;;9.10;99.90;;;;;;6193543;23;20078;-85
2022/10/12 07:22:13;;;;;;;2.00;1.03;;;9.50;99.90;;;;;;6194315;23;20055;-86
2022/10/12 07:24:39;;;;;;;1.50;1.03;;;9.90;99.90;;;;;;6217156;23;20008;-83
2022/10/12 07:27:08;;;;;;;1.43;0.57;;;10.10;99.90;;;;;;6193268;23;20091;-84
2022/10/12 07:29:35;;;;;;;1.10;0.68;;;10.30;99.90;;;;;;6194000;23;20027;-83
2022/10/12 07:32:01;;;;;;;;;;;10.30;99.90;;;;;;6246713;23;20404;-83
2022/10/12 07:34:27;;;;;;;0.77;0.77;;;10.20;99.90;;;;;;6218514;23;19915;-83
2022/10/12 07:36:55;;;;;;;0.70;0.70;;;10.30;99.90;;;;;;6217493;23;20024;-84
2022/10/12 07:39:21;;;;;;;;;;;10.60;99.90;;;;;;6218747;23;20024;-83
2022/10/12 07:41:48;;;;;;;1.98;0.82;;;10.00;99.90;;;;;;6218368;23;19969;-86
2022/10/12 07:44:14;;;;;;;0.30;0.30;;;10.00;99.90;;;;;;6217910;23;20018;-86
2022/10/12 07:46:40;;;;;;;0.73;0.50;;;10.00;99.90;;;;;;6193556;23;20027;-87
2022/10/12 07:49:06;;;;;;;0.65;0.63;;;10.00;99.90;;;;;;6218065;23;20016;-87
2022/10/12 07:51:32;;;;;;;0.50;0.50;;;10.20;99.90;;;;;;6218447;23;20016;-86
2022/10/12 07:53:59;;;;;;;0.82;0.50;;;10.30;99.90;;;;;;6193493;23;20247;-86
2022/10/12 07:56:25;;;;;;;0.68;0.40;;;10.30;99.90;;;;;;6218409;23;20441;-86
2022/10/12 07:58:53;;;;;;;0.22;0.22;;;10.50;99.90;;;;;;6218425;23;20326;-86
2022/10/12 08:01:20;;;;;;;0.40;0.40;;;10.70;99.90;;;;;;6218964;23;20024;-86
2022/10/12 08:03:47;;;;;;;0.73;0.73;;;10.90;99.90;;;;;;6217572;23;20016;-86
2022/10/12 08:06:18;;;;;;;0.82;0.68;;;11.20;99.90;;;;;;6218475;23;20441;-86
2022/10/12 08:08:44;;;;;;;0.55;0.50;;;11.50;99.90;;;;;;6218138;23;20020;-84
2022/10/12 08:11:11;;;;;;;0.47;0.40;;;11.70;99.90;;;;;;6218824;23;20024;-85
2022/10/12 08:13:38;;;;;;;0.50;0.50;;;11.60;99.90;;;;;;6193649;23;20016;-83
2022/10/12 08:16:05;;;;;;;0.32;0.30;;;11.40;99.90;;;;;;6216619;23;20345;-84
2022/10/12 08:18:31;;;;;;;0.80;0.60;;;11.20;99.90;;;;;;6218773;23;20012;-87
2022/10/12 08:20:57;;;;;;;3.20;0.40;;;11.00;99.90;;;;;;6217782;23;20023;-85
2022/10/12 08:23:23;;;;;;;0.10;0.10;;;10.70;99.90;;;;;;6216801;23;20016;-81
2022/10/12 08:25:53;;;;;;;1.90;0.63;;;10.60;99.90;;;;;;6243597;23;20016;-84
2022/10/12 08:28:19;;;;;;;0.40;0.40;;;10.50;99.90;;;;;;6217815;23;20012;-89
2022/10/12 08:30:45;;;;;;;0.57;0.40;;;10.30;99.90;;;;;;6217008;23;20381;-90
2022/10/12 08:33:12;;;;;;;0.20;0.20;;;10.20;99.90;;;;;;6193213;23;20027;-89
2022/10/12 08:35:41;;;;;;;0.30;0.30;;;10.10;99.90;;;;;;6222070;22;20441;-90
2022/10/12 08:38:09;;;;;;;0.40;0.32;;;10.10;99.90;;;;;;6222929;22;20031;-89
2022/10/12 08:40:44;;;;;;;0.40;0.30;;;10.10;99.90;;;;;;6250096;22;20450;-84
2022/10/12 08:43:33;;;;;;;0.75;0.40;;;10.10;99.90;;;;;;6228093;22;20348;-89
2022/10/12 08:46:03;;;;;;;0.68;0.35;;;10.00;99.90;;;;;;6222908;22;20026;-89
2022/10/12 08:48:41;;;;;;;0.38;0.30;;;10.10;99.90;;;;;;6223731;22;20016;-91
2022/10/12 08:51:13;;;;;;;0.75;0.35;;;10.10;99.90;;;;;;6250254;22;20027;-91
2022/10/12 08:53:39;;;;;;;0.55;0.50;;;10.00;99.90;;;;;;6222614;22;20095;-90
2022/10/12 08:56:05;;;;;;;0.43;0.33;;;10.10;99.90;;;;;;6223294;22;20024;-91
2022/10/12 08:58:35;;;;;;;0.20;0.20;;;10.10;99.90;;;;;;6225957;22;20030;-91
2022/10/12 09:01:19;;;;;;;0.22;0.22;;;10.10;99.90;;;;;;6251928;22;20022;-90
2022/10/12 09:03:55;;;;;;;0.30;0.20;;;10.20;99.90;;;;;;6223593;22;20019;-89
2022/10/12 09:06:46;;;;;;;0.17;0.17;;;10.20;99.90;;;;;;6251662;22;20065;-84
2022/10/12 09:09:48;;;;;;;1.05;0.40;;;10.20;99.90;;;;;;6246841;22;20459;-87
2022/10/12 09:12:19;;;;;;;0.10;0.10;;;10.20;99.90;;;;;;6222756;22;20020;-89
2022/10/12 09:14:46;;;;;;;0.63;0.30;;;10.20;99.90;;;;;;6224577;22;20051;-90
2022/10/12 09:17:27;;;;;;;;;;;10.20;99.90;;;;;;6248150;22;20043;-89
2022/10/12 09:20:01;;;;;;;1.08;0.43;;;10.30;99.90;;;;;;6249649;22;19926;-89
2022/10/12 09:22:29;;;;;;;0.40;0.30;;;10.40;99.90;;;;;;6250327;22;20020;-89
2022/10/12 09:24:57;;;;;;;0.40;0.28;;;10.60;99.90;;;;;;6248102;22;20077;-87
2022/10/12 09:27:24;;;;;;;0.22;0.10;;;10.80;99.90;;;;;;6248148;22;20016;-89
2022/10/12 09:29:55;;;;;;;0.40;0.40;;;11.10;99.90;;;;;;6247743;22;20099;-87
2022/10/12 09:32:36;;;;;;;1.25;0.40;;;11.20;99.90;;;;;;6223642;22;20015;-85
2022/10/12 09:35:04;;;;;;;0.38;0.30;;;11.40;99.90;;;;;;6247815;22;20068;-86
2022/10/12 09:37:32;;;;;;;0.60;0.30;;;11.60;99.90;;;;;;6245001;22;20024;-85
2022/10/12 09:39:58;;;;;;;0.32;0.28;;;11.80;99.90;;;;;;6243882;23;20024;-82
2022/10/12 09:42:24;;;;;;;0.32;0.32;;;11.90;99.90;;;;;;6217135;23;20008;-82
2022/10/12 09:44:55;;;;;;;0.20;0.20;;;12.10;99.90;;;;;;6244057;23;20391;-82
2022/10/12 09:47:28;;;;;;;0.55;0.45;;;12.20;99.90;;;;;;6218177;23;20016;-82
2022/10/12 09:49:59;;;;;;;0.40;0.40;;;12.40;99.90;;;;;;6192440;23;20012;-85
2022/10/12 09:52:34;;;;;;;0.30;0.30;;;12.70;99.90;;;;;;6192568;23;20023;-82
2022/10/12 09:55:06;;;;;;;0.32;0.32;;;12.90;99.90;;;;;;6219039;23;20016;-82
2022/10/12 09:57:43;;;;;;;0.35;0.35;;;13.10;99.90;;;;;;6219239;23;20019;-86
2022/10/12 10:00:26;;;;;;;0.30;0.30;;;13.20;99.90;;;;;;6218361;23;20459;-84
2022/10/12 10:02:53;;;;;;;0.22;0.22;;;13.40;99.90;;;;;;6245224;23;20008;-82
2022/10/12 10:05:28;;;;;;;0.43;0.20;;;13.60;99.90;;;;;;6193829;23;20090;-85
2022/10/12 10:08:13;;;;;;;0.20;0.10;;;13.70;99.90;;;;;;6219193;23;20016;-86
2022/10/12 10:11:00;;;;;;;0.28;0.28;;;13.80;99.90;;;;;;6192513;23;20028;-84
2022/10/12 10:13:29;;;;;;;0.50;0.50;;;13.90;99.90;;;;;;6218634;23;20027;-85
2022/10/12 10:16:07;;;;;;;0.10;0.10;;;13.80;99.90;;;;;;6194813;23;20063;-85
2022/10/12 10:18:49;;;;;;;0.20;0.20;;;13.90;99.90;;;;;;6205091;23;20056;-85
2022/10/12 10:21:24;;;;;;;0.63;0.43;;;14.00;99.90;;;;;;6220853;23;20322;-85
2022/10/12 10:23:55;;;;;;;0.70;0.40;;;14.20;99.90;;;;;;6219919;23;20016;-86
2022/10/12 10:26:22;;;;;;;0.20;0.20;;;14.50;99.90;;;;;;6219541;23;20012;-86
2022/10/12 10:28:55;;;;;;;0.32;0.30;;;14.60;99.90;;;;;;6219623;23;20063;-85
2022/10/12 10:31:26;;;;;;;0.20;0.20;;;14.80;99.90;;;;;;6219235;23;20017;-86
2022/10/12 10:34:16;;;;;;;0.20;0.20;;;14.90;99.90;;;;;;6223045;23;20062;-86
2022/10/12 10:37:02;;;;;;;0.08;0.08;;;15.10;99.90;;;;;;6222592;23;20353;-86
2022/10/12 10:39:50;;;;;;;0.20;0.20;;;15.20;99.90;;;;;;6246368;23;20065;-85
2022/10/12 10:42:34;;;;;;;;;;;15.40;99.90;;;;;;6246869;23;20100;-85
2022/10/12 10:45:47;;;;;;;0.20;0.10;;;15.60;99.90;;;;;;6245941;23;19913;-85
2022/10/12 10:48:26;;;;;;;0.47;0.10;;;15.90;99.90;;;;;;6216215;23;20031;-86
2022/10/12 10:51:03;;;;;;;1.38;0.57;;;16.00;99.90;;;;;;6219869;23;20020;-85
2022/10/12 10:53:49;;;;;;;0.77;0.37;;;16.20;99.90;;;;;;6219988;23;20107;-85
2022/10/12 10:56:23;;;;;;;0.10;0.10;;;16.40;99.90;;;;;;6245396;23;20059;-86
2022/10/12 10:59:01;;;;;;;0.10;0.10;;;16.60;99.90;;;;;;6219747;23;20017;-85
2022/10/12 11:01:52;;;;;;;0.10;0.10;;;16.70;99.90;;;;;;6218766;23;20020;-85
2022/10/12 11:04:30;;;;;;;0.30;0.10;;;16.90;99.90;;;;;;6193569;23;20012;-86
2022/10/12 11:06:59;;;;;;;0.63;0.20;;;17.10;99.90;;;;;;6194557;23;20024;-85
2022/10/12 11:09:32;;;;;;;0.15;0.15;;;17.20;99.90;;;;;;6245741;23;20348;-85
2022/10/12 11:12:11;;;;;;;0.10;0.03;;;17.50;99.90;;;;;;6219475;23;20019;-85
2022/10/12 11:14:46;;;;;;;0.00;0.00;;;17.40;99.90;;;;;;6219557;23;20020;-86
2022/10/12 11:17:28;;;;;;;0.10;0.10;;;17.50;99.90;;;;;;6193687;23;20027;-86
2022/10/12 11:20:13;;;;;;;0.03;0.03;;;17.50;99.90;;;;;;6194406;23;20067;-85
2022/10/12 11:23:02;;;;;;;0.20;0.20;;;17.50;99.90;;;;;;6194608;23;20058;-86
2022/10/12 11:25:40;;;;;;;0.20;0.17;;;17.80;99.90;;;;;;6218958;23;20460;-86
2022/10/12 11:28:06;;;;;;;0.05;0.03;;;17.80;99.90;;;;;;6194355;23;20047;-87
2022/10/12 11:30:44;;;;;;;0.22;0.22;;;17.80;99.90;;;;;;6219326;23;20012;-86
2022/10/12 11:33:43;;;;;;;0.00;0.00;;;17.80;99.90;;;;;;6219088;23;20016;-86
2022/10/12 11:36:13;;;;;;;0.47;0.22;;;17.90;99.90;;;;;;6193511;23;20082;-86
2022/10/12 11:38:43;;;;;;;0.10;0.10;;;18.00;99.90;;;;;;6219617;23;20016;-86
2022/10/12 11:41:20;;;;;;;0.22;0.10;;;18.00;99.90;;;;;;6218745;23;20027;-86
2022/10/12 11:43:50;;;;;;;0.20;0.20;;;18.10;99.90;;;;;;6194274;23;20043;-85
2022/10/12 11:46:22;;;;;;;0.10;0.10;;;18.30;99.90;;;;;;6218695;23;20016;-86
2022/10/12 11:49:01;;;;;;;0.20;0.20;;;18.30;99.90;;;;;;6219472;23;20015;-85
2022/10/12 11:51:27;;;;;;;0.32;0.17;;;18.30;99.90;;;;;;6218758;23;20016;-86
2022/10/12 11:54:11;;;;;;;0.10;0.05;;;18.20;99.90;;;;;;6219178;23;20086;-86
2022/10/12 11:56:42;;;;;;;1.13;0.05;;;18.20;99.90;;;;;;6219314;23;20445;-85
2022/10/12 11:59:28;;;;;;;0.00;0.00;;;18.20;99.90;;;;;;6194273;23;20022;-85
2022/10/12 12:02:03;;;;;;;0.57;0.20;;;18.20;99.90;;;;;;6193659;23;20016;-85
2022/10/12 12:04:34;;;;;;;0.08;0.08;;;18.30;99.90;;;;;;6193418;23;20016;-85
2022/10/12 12:07:24;;;;;;;0.08;0.08;;;18.40;99.90;;;;;;6219221;23;20062;-85
2022/10/12 12:09:50;;;;;;;0.10;0.10;;;18.50;99.90;;;;;;6193946;23;20026;-85
2022/10/12 12:12:25;;;;;;;0.10;0.10;;;18.70;99.90;;;;;;6193439;23;20094;-86
2022/10/12 12:14:54;;;;;;;0.20;0.10;;;18.70;99.90;;;;;;6218874;23;20056;-85
2022/10/12 12:17:20;;;;;;;0.20;0.20;;;18.60;99.90;;;;;;6223330;23;20023;-86
2022/10/12 12:19:52;;;;;;;0.25;0.22;;;18.80;99.90;;;;;;6222294;23;20023;-86
2022/10/12 12:22:44;;;;;;;0.43;0.20;;;18.90;99.90;;;;;;6193228;23;20522;-85
2022/10/12 12:25:10;;;;;;;0.32;0.25;;;19.10;99.90;;;;;;6193828;23;20024;-86
2022/10/12 12:27:41;;;;;;;0.35;0.25;;;19.10;99.90;;;;;;6218219;23;20091;-86
2022/10/12 12:30:20;;;;;;;0.20;0.20;;;19.10;99.90;;;;;;6193736;23;20027;-86
2022/10/12 12:33:16;;;;;;;0.43;0.43;;;19.00;99.90;;;;;;6218824;23;20078;-86
2022/10/12 12:35:56;;;;;;;0.30;0.30;;;19.10;99.90;;;;;;6199276;23;20061;-86
2022/10/12 12:38:37;;;;;;;0.10;0.10;;;19.10;99.90;;;;;;6218736;23;20016;-86
2022/10/12 12:41:08;;;;;;;0.17;0.17;;;19.30;99.90;;;;;;6169822;23;20016;-86
2022/10/12 12:43:56;;;;;;;0.20;0.20;;;19.40;99.90;;;;;;6193477;23;20341;-86
2022/10/12 12:46:24;;;;;;;0.25;0.20;;;19.20;99.90;;;;;;6218635;23;20337;-86
2022/10/12 12:48:50;;;;;;;0.35;0.10;;;19.20;99.90;;;;;;6218902;23;20012;-86
2022/10/12 12:51:31;;;;;;;0.15;0.15;;;19.40;99.90;;;;;;6219627;23;20077;-86
2022/10/12 12:54:05;;;;;;;1.65;0.95;;;19.50;99.90;;;;;;6193553;23;20017;-86
2022/10/12 12:57:04;;;;;;;0.30;0.20;;;19.40;99.90;;;;;;6218406;23;20023;-86
2022/10/12 12:59:58;;;;;;;0.13;0.10;;;19.50;99.90;;;;;;6219240;23;20348;-86
2022/10/12 13:02:33;;;;;;;0.15;0.10;;;19.60;99.90;;;;;;6192786;23;20074;-86
2022/10/12 13:05:32;;;;;;;0.20;0.10;;;19.60;99.90;;;;;;6219504;23;20020;-86
2022/10/12 13:08:19;;;;;;;0.13;0.13;;;19.70;99.90;;;;;;6219288;23;20055;-85
2022/10/12 13:11:23;;;;;;;0.43;0.15;;;19.70;99.90;;;;;;6194334;23;20024;-86
2022/10/12 13:13:59;;;;;;;0.20;0.20;;;19.70;99.90;;;;;;6172635;23;20023;-86
2022/10/12 13:16:46;;;;;;;0.20;0.20;;;19.70;99.90;;;;;;6218104;23;20051;-86